Time;durP1;ratioP1;P1;durP2;ratioP2;P2;SDS_P1;SDS_P2;PMS_P1;PMS_P2;Temp;Humidity;BMP_temperature;BMP_pressure;BME280_temperature;BME280_humidity;BME280_pressure;Samples;Min_cycle;Max_cycle;Signal;HPM_P1;HPM_P2
2022/05/01 00:01:02;;;;;;;20.27;14.25;;;;;;;13.28;100.00;101689.53;5096415;28;20027;-83
2022/05/01 00:03:49;;;;;;;17.80;13.38;;;;;;;13.12;100.00;101695.88;5081252;28;20399;-83
2022/05/01 00:06:35;;;;;;;19.27;13.45;;;;;;;12.93;100.00;101698.69;5096944;28;20039;-82
2022/05/01 00:09:21;;;;;;;16.38;12.45;;;;;;;12.79;100.00;101701.50;5096198;28;20035;-83
2022/05/01 00:12:07;;;;;;;19.20;13.20;;;;;;;12.83;100.00;101697.91;5081530;28;20463;-83
2022/05/01 00:14:53;;;;;;;17.50;12.73;;;;;;;12.88;100.00;101704.00;5080804;28;20028;-83
2022/05/01 00:17:39;;;;;;;19.55;13.93;;;;;;;13.13;100.00;101704.59;5081492;28;20020;-82
2022/05/01 00:20:25;;;;;;;16.35;12.55;;;;;;;13.10;100.00;101709.94;5096024;28;20335;-83
2022/05/01 00:23:11;;;;;;;19.48;13.30;;;;;;;12.72;100.00;101702.44;5081630;28;20028;-82
2022/05/01 00:25:59;;;;;;;21.75;15.18;;;;;;;13.05;100.00;101703.81;5095819;28;20096;-82
2022/05/01 00:28:45;;;;;;;18.63;14.57;;;;;;;12.95;100.00;101703.03;5095703;28;20016;-82
2022/05/01 00:31:31;;;;;;;18.45;13.80;;;;;;;12.84;100.00;101710.19;5095553;28;20020;-82
2022/05/01 00:37:21;;;;;;;21.05;14.80;;;;;;;12.91;100.00;101696.06;5095190;28;20016;-83
2022/05/01 00:40:07;;;;;;;22.63;13.95;;;;;;;13.07;100.00;101702.06;5095417;28;20031;-83
2022/05/01 00:42:54;;;;;;;17.90;13.45;;;;;;;12.91;100.00;101700.47;5095638;28;20023;-83
2022/05/01 00:45:40;;;;;;;19.02;13.98;;;;;;;12.88;100.00;101696.13;5095262;28;20031;-83
2022/05/01 00:48:27;;;;;;;17.17;13.48;;;;;;;12.84;100.00;101694.41;5080848;28;20031;-82
2022/05/01 00:51:13;;;;;;;21.60;14.05;;;;;;;13.12;100.00;101685.34;5095621;28;20085;-83
2022/05/01 00:53:59;;;;;;;18.20;13.52;;;;;;;12.77;100.00;101681.31;5095675;28;20453;-83
2022/05/01 00:56:48;;;;;;;23.48;14.27;;;;;;;12.72;100.00;101688.41;5095483;28;20387;-83
2022/05/01 00:59:37;;;;;;;17.75;13.43;;;;;;;12.97;100.00;101682.88;5094814;28;20043;-83
2022/05/01 01:02:23;;;;;;;19.45;13.68;;;;;;;13.02;100.00;101683.69;5094964;28;20096;-83
2022/05/01 01:05:09;;;;;;;22.35;14.30;;;;;;;12.84;100.00;101688.28;5094184;28;20036;-82
2022/05/01 01:07:55;;;;;;;19.83;14.18;;;;;;;12.90;100.00;101681.19;5095402;28;20352;-83
2022/05/01 01:10:40;;;;;;;22.25;13.63;;;;;;;12.72;100.00;101691.03;5094402;28;20106;-82
2022/05/01 01:13:27;;;;;;;22.58;14.50;;;;;;;12.98;100.00;101687.25;5095270;28;20023;-83
2022/05/01 01:16:13;;;;;;;23.05;14.95;;;;;;;12.73;100.00;101691.03;5094360;28;20028;-83
2022/05/01 01:18:59;;;;;;;20.48;14.98;;;;;;;12.74;100.00;101687.50;5080170;28;20376;-82
2022/05/01 01:21:51;;;;;;;20.10;15.13;;;;;;;12.43;100.00;101687.84;5093208;28;20023;-82
2022/05/01 01:24:40;;;;;;;24.20;14.85;;;;;;;12.76;100.00;101691.00;5094264;28;20028;-82
2022/05/01 01:27:26;;;;;;;26.73;16.38;;;;;;;12.54;100.00;101686.81;5094489;28;20129;-83
2022/05/01 01:33:17;;;;;;;23.63;15.88;;;;;;;12.80;100.00;101697.97;5093986;28;20043;-83
2022/05/01 01:36:04;;;;;;;25.30;16.60;;;;;;;12.85;100.00;101693.50;5094469;28;20023;-83
2022/05/01 01:38:50;;;;;;;24.65;15.98;;;;;;;12.43;100.00;101701.84;5080491;28;20032;-83
2022/05/01 01:41:40;;;;;;;24.83;16.35;;;;;;;12.60;100.00;101699.94;5093725;28;20038;-83
2022/05/01 01:44:29;;;;;;;29.58;16.08;;;;;;;12.38;100.00;101694.91;5080413;28;20020;-81
2022/05/01 01:47:17;;;;;;;21.58;14.90;;;;;;;12.54;100.00;101691.25;5078917;28;20020;-83
2022/05/01 01:50:05;;;;;;;22.60;15.82;;;;;;;12.59;100.00;101682.41;5079865;28;20058;-82
2022/05/01 01:52:51;;;;;;;24.70;15.68;;;;;;;12.64;100.00;101685.88;5093398;28;20479;-83
2022/05/01 01:55:38;;;;;;;21.75;14.60;;;;;;;12.59;100.00;101698.19;5095882;28;20028;-83
2022/05/01 01:58:25;;;;;;;21.67;14.68;;;;;;;12.70;100.00;101692.81;5094485;28;20032;-83
2022/05/01 02:01:11;;;;;;;18.17;14.57;;;;;;;12.53;100.00;101695.63;5093621;28;20031;-82
2022/05/01 02:03:57;;;;;;;20.75;14.52;;;;;;;12.58;100.00;101698.22;5094616;28;20109;-83
2022/05/01 02:06:43;;;;;;;21.25;14.88;;;;;;;12.37;100.00;101701.91;5094602;28;20030;-81
2022/05/01 02:09:30;;;;;;;21.67;14.80;;;;;;;12.47;100.00;101700.06;5093829;28;20488;-82
2022/05/01 02:12:16;;;;;;;22.17;14.98;;;;;;;12.32;100.00;101714.22;5095193;28;20035;-81
2022/05/01 02:15:02;;;;;;;22.85;13.98;;;;;;;12.45;100.00;101717.59;5094859;28;20444;-83
2022/05/01 02:17:49;;;;;;;20.98;14.45;;;;;;;12.73;100.00;101717.31;5097132;28;20028;-84
2022/05/01 02:23:40;;;;;;;21.20;14.70;;;;;;;12.46;100.00;101722.84;5098225;28;20024;-83
2022/05/01 02:26:26;;;;;;;22.45;15.50;;;;;;;12.40;100.00;101717.66;5103252;28;20020;-82
2022/05/01 02:29:12;;;;;;;20.23;14.98;;;;;;;12.14;100.00;101714.34;5101639;28;20060;-81
2022/05/01 02:31:58;;;;;;;19.58;15.00;;;;;;;12.60;100.00;101722.72;5088678;28;20027;-83
2022/05/01 02:34:45;;;;;;;25.58;15.68;;;;;;;12.82;100.00;101719.84;5097948;28;20070;-83
2022/05/01 02:37:31;;;;;;;24.52;15.75;;;;;;;12.02;100.00;101719.69;5083514;28;20403;-82
2022/05/01 02:40:17;;;;;;;24.20;15.15;;;;;;;12.24;100.00;101728.28;5098563;28;20031;-82
2022/05/01 02:43:05;;;;;;;20.10;15.32;;;;;;;12.30;100.00;101736.13;5082474;28;20424;-82
2022/05/01 02:45:51;;;;;;;23.70;16.15;;;;;;;11.86;100.00;101725.09;5098138;28;20341;-82
2022/05/01 02:48:36;;;;;;;25.33;15.35;;;;;;;11.82;100.00;101736.50;5097115;28;20016;-82
2022/05/01 02:51:22;;;;;;;25.20;15.85;;;;;;;11.95;100.00;101732.91;5083204;28;20468;-82
2022/05/01 02:54:08;;;;;;;23.70;16.08;;;;;;;12.08;100.00;101734.53;5097492;28;20058;-83
2022/05/01 02:56:54;;;;;;;23.27;17.20;;;;;;;12.14;100.00;101734.53;5097194;28;20040;-82
2022/05/01 02:59:40;;;;;;;27.20;17.25;;;;;;;12.22;100.00;101738.81;5096896;28;20047;-83
2022/05/01 03:02:28;;;;;;;23.23;16.70;;;;;;;12.22;100.00;101725.66;5098332;28;20097;-83
2022/05/01 03:05:16;;;;;;;25.90;18.38;;;;;;;12.22;100.00;101732.69;5097792;28;20032;-82
2022/05/01 03:08:02;;;;;;;26.77;18.38;;;;;;;12.10;100.00;101733.66;5082637;28;20397;-82
2022/05/01 03:10:47;;;;;;;26.33;18.23;;;;;;;12.33;100.00;101736.09;5097061;28;20027;-82
2022/05/01 03:13:33;;;;;;;26.92;16.95;;;;;;;12.06;100.00;101731.94;5096980;28;20422;-82
2022/05/01 03:16:20;;;;;;;28.65;18.95;;;;;;;12.00;100.00;101729.38;5097785;28;20032;-83
2022/05/01 03:22:16;;;;;;;29.48;17.67;;;;;;;12.06;100.00;101715.31;5097095;28;20379;-82
2022/05/01 03:25:02;;;;;;;24.35;18.35;;;;;;;12.07;100.00;101715.31;5097554;28;20035;-82
2022/05/01 03:27:47;;;;;;;33.13;20.88;;;;;;;12.07;100.00;101720.56;5096133;28;20028;-82
2022/05/01 03:30:34;;;;;;;30.10;18.98;;;;;;;11.99;100.00;101718.88;5096686;28;20329;-82
2022/05/01 03:33:21;;;;;;;25.63;18.67;;;;;;;12.10;100.00;101723.13;5097319;28;20028;-82
2022/05/01 03:36:07;;;;;;;28.90;19.17;;;;;;;12.04;100.00;101728.47;5096504;28;20027;-82
2022/05/01 03:38:53;;;;;;;30.15;19.20;;;;;;;12.16;100.00;101727.47;5096797;28;20522;-82
2022/05/01 03:41:39;;;;;;;25.15;19.05;;;;;;;12.14;100.00;101724.00;5096507;28;20030;-82
2022/05/01 03:44:24;;;;;;;24.08;17.90;;;;;;;12.13;100.00;101731.00;5097387;28;20031;-83
2022/05/01 03:47:10;;;;;;;27.92;18.23;;;;;;;12.15;100.00;101731.88;5096421;28;20371;-82
2022/05/01 03:49:56;;;;;;;22.40;16.27;;;;;;;12.34;100.00;101727.34;5097180;28;20103;-83
2022/05/01 03:52:42;;;;;;;27.75;17.08;;;;;;;12.28;100.00;101732.63;5096818;28;20024;-81
2022/05/01 03:55:28;;;;;;;22.83;16.67;;;;;;;12.14;100.00;101724.84;5081679;28;20535;-82
2022/05/01 03:58:14;;;;;;;25.02;17.35;;;;;;;12.28;100.00;101733.53;5097039;28;20028;-82
2022/05/01 04:01:00;;;;;;;24.50;16.70;;;;;;;12.32;100.00;101729.09;5096050;28;20028;-82
2022/05/01 04:03:46;;;;;;;27.17;16.98;;;;;;;12.53;100.00;101724.53;5081083;28;20028;-83
2022/05/01 04:06:32;;;;;;;27.42;17.63;;;;;;;12.52;100.00;101733.31;5096917;28;20036;-82
2022/05/01 04:09:17;;;;;;;24.20;16.55;;;;;;;12.41;100.00;101734.28;5095611;28;20020;-83
2022/05/01 04:12:07;;;;;;;24.58;17.60;;;;;;;12.72;100.00;101736.63;5096195;28;20184;-84
2022/05/01 04:14:52;;;;;;;30.77;17.33;;;;;;;12.55;100.00;101729.78;5095515;28;20031;-83
2022/05/01 04:17:40;;;;;;;31.80;19.15;;;;;;;12.60;100.00;101723.59;5095861;28;20020;-82
2022/05/01 04:20:26;;;;;;;24.75;17.00;;;;;;;12.48;100.00;101721.06;5096818;28;20039;-83
2022/05/01 04:23:11;;;;;;;27.40;17.30;;;;;;;12.52;100.00;101722.78;5095671;28;20024;-82
2022/05/01 04:25:57;;;;;;;24.45;16.50;;;;;;;12.36;100.00;101713.31;5081201;28;20024;-83
2022/05/01 04:29:36;;;;;;;21.00;16.08;;;;;;;12.21;100.00;101721.31;5095780;28;20055;-82
2022/05/01 04:31:49;;;;;;;25.08;17.00;;;;;;;12.13;100.00;101717.03;5096858;28;20067;-81
2022/05/01 04:34:35;;;;;;;26.38;16.08;;;;;;;12.53;100.00;101724.53;5095468;28;20070;-82
2022/05/01 04:37:21;;;;;;;26.10;16.38;;;;;;;12.70;100.00;101722.59;5096071;28;20027;-83
2022/05/01 04:40:07;;;;;;;25.42;16.70;;;;;;;12.75;100.00;101718.19;5080565;28;20036;-83
2022/05/01 04:42:59;;;;;;;27.27;17.30;;;;;;;12.88;100.00;101717.16;5096117;28;20024;-83
2022/05/01 04:45:56;;;;;;;27.60;16.17;;;;;;;12.47;100.00;101718.47;5095996;28;20028;-83
2022/05/01 04:48:45;;;;;;;26.80;17.60;;;;;;;12.55;100.00;101712.25;5081779;28;20020;-83
2022/05/01 04:51:31;;;;;;;24.15;17.60;;;;;;;12.98;100.00;101717.97;5081031;28;20024;-84
2022/05/01 04:54:20;;;;;;;25.75;17.08;;;;;;;12.79;100.00;101711.13;5096520;28;20113;-84
2022/05/01 04:57:10;;;;;;;25.17;16.60;;;;;;;12.90;100.00;101714.53;5096239;28;20089;-83
2022/05/01 04:59:56;;;;;;;27.33;17.98;;;;;;;12.68;100.00;101719.13;5095696;28;20035;-82
2022/05/01 05:02:42;;;;;;;31.80;18.30;;;;;;;12.89;100.00;101721.53;5095782;28;20032;-83
2022/05/01 05:05:32;;;;;;;26.88;17.83;;;;;;;12.23;100.00;101722.19;5094683;28;20043;-83
2022/05/01 05:11:22;;;;;;;26.85;18.88;;;;;;;12.00;100.00;101726.72;5095023;28;20023;-83
2022/05/01 05:14:08;;;;;;;24.35;18.38;;;;;;;12.07;100.00;101723.19;5095009;28;20039;-82
2022/05/01 05:16:54;;;;;;;24.42;17.90;;;;;;;12.78;100.00;101726.03;5095003;28;20055;-83
2022/05/01 05:19:40;;;;;;;26.60;19.58;;;;;;;12.73;100.00;101725.19;5081005;28;20406;-82
2022/05/01 05:22:28;;;;;;;28.27;19.15;;;;;;;12.82;100.00;101725.09;5094874;28;20048;-83
2022/05/01 05:25:15;;;;;;;25.13;17.70;;;;;;;13.34;100.00;101710.47;5094288;28;20036;-83
2022/05/01 05:28:01;;;;;;;24.42;18.00;;;;;;;13.57;100.00;101715.44;5094815;28;20028;-82
2022/05/01 05:30:51;;;;;;;27.10;18.55;;;;;;;13.37;100.00;101726.25;5094816;28;20036;-84
2022/05/01 05:33:37;;;;;;;27.33;18.23;;;;;;;13.13;100.00;101721.28;5080856;28;20444;-83
2022/05/01 05:36:22;;;;;;;26.45;17.17;;;;;;;13.69;100.00;101713.50;5096344;28;20386;-84
2022/05/01 05:39:08;;;;;;;25.88;17.48;;;;;;;13.65;100.00;101721.47;5095081;28;20509;-82
2022/05/01 05:41:54;;;;;;;27.80;18.13;;;;;;;13.20;100.00;101727.34;5095457;28;20039;-82
2022/05/01 05:44:40;;;;;;;24.77;17.45;;;;;;;13.67;100.00;101727.59;5094669;28;20031;-82
2022/05/01 05:47:26;;;;;;;22.83;16.27;;;;;;;13.92;100.00;101723.72;5093948;28;20089;-83
2022/05/01 05:50:12;;;;;;;26.23;15.50;;;;;;;14.29;100.00;101724.91;5080613;28;20527;-82
2022/05/01 05:52:57;;;;;;;24.58;17.52;;;;;;;14.50;100.00;101728.03;5094763;28;20379;-81
2022/05/01 05:55:45;;;;;;;25.70;17.60;;;;;;;14.28;100.00;101728.44;5094893;28;20044;-83
2022/05/01 05:58:30;;;;;;;22.58;16.65;;;;;;;14.52;100.00;101730.66;5081216;28;20392;-82
2022/05/01 06:01:19;;;;;;;24.70;18.48;;;;;;;14.81;100.00;101728.34;5094660;28;20020;-83
2022/05/01 06:04:05;;;;;;;24.38;17.48;;;;;;;14.84;100.00;101731.78;5098254;28;20028;-83
2022/05/01 06:06:51;;;;;;;24.45;17.90;;;;;;;14.59;100.00;101735.78;5098149;28;20399;-82
2022/05/01 06:09:36;;;;;;;24.25;17.80;;;;;;;14.78;100.00;101738.97;5094617;28;20145;-84
2022/05/01 06:12:22;;;;;;;29.08;18.90;;;;;;;14.71;100.00;101745.28;5080365;28;20340;-82
2022/05/01 06:15:09;;;;;;;23.27;18.23;;;;;;;14.56;100.00;101746.38;5079339;28;20036;-83
2022/05/01 06:17:54;;;;;;;23.58;18.40;;;;;;;14.59;100.00;101741.06;5093893;28;20024;-81
2022/05/01 08:57:49;;;;;;;12.75;7.28;;;;;;;22.51;61.58;101744.06;4917955;29;20044;-83
2022/05/01 09:00:36;;;;;;;12.25;7.60;;;;;;;22.44;61.12;101749.75;4918103;29;20099;-83
2022/05/01 09:03:22;;;;;;;7.72;5.20;;;;;;;22.40;59.73;101741.03;4918189;29;20130;-84
2022/05/01 09:06:08;;;;;;;9.45;5.03;;;;;;;22.29;59.94;101738.03;4918406;29;20028;-84
2022/05/01 09:08:56;;;;;;;7.35;4.47;;;;;;;23.05;57.69;101741.22;4918374;29;20028;-84
2022/05/01 09:14:46;;;;;;;5.55;4.22;;;;;;;21.91;58.12;101740.84;4919031;29;20389;-85
2022/05/01 09:17:34;;;;;;;6.07;4.43;;;;;;;21.69;58.00;101742.75;4916915;29;20035;-86
2022/05/01 09:20:23;;;;;;;8.68;4.30;;;;;;;21.56;54.30;101739.81;4918033;29;20036;-85
2022/05/01 09:23:09;;;;;;;7.85;4.68;;;;;;;21.01;55.68;101734.38;4919005;29;20330;-85
2022/05/01 09:25:59;;;;;;;9.52;5.60;;;;;;;21.72;54.50;101730.19;4918649;29;20024;-83
2022/05/01 09:28:54;;;;;;;6.45;3.85;;;;;;;22.25;53.54;101723.09;4931897;29;20063;-83
2022/05/01 09:31:46;;;;;;;5.93;4.50;;;;;;;21.58;56.23;101718.41;4917244;29;20050;-84
2022/05/01 09:34:35;;;;;;;4.43;3.00;;;;;;;21.87;50.69;101721.41;4916658;29;20151;-84
2022/05/01 09:37:21;;;;;;;5.30;2.85;;;;;;;22.75;49.50;101728.59;4920111;29;20346;-83
2022/05/01 09:40:10;;;;;;;6.07;3.47;;;;;;;22.25;52.59;101716.88;4916942;29;20039;-83
2022/05/01 09:42:56;;;;;;;4.07;3.30;;;;;;;21.67;48.71;101720.63;4931862;29;20028;-84
2022/05/01 09:45:45;;;;;;;3.83;2.60;;;;;;;21.15;45.33;101721.28;4917489;29;20044;-82
2022/05/01 09:48:31;;;;;;;5.82;2.90;;;;;;;21.80;46.50;101716.47;4917268;29;20034;-83
2022/05/01 09:51:18;;;;;;;4.03;2.63;;;;;;;22.13;43.75;101713.03;4918096;29;20028;-84
2022/05/01 09:54:06;;;;;;;5.28;2.53;;;;;;;21.88;43.94;101706.28;4917960;29;20028;-84
2022/05/01 09:56:57;;;;;;;5.55;4.78;;;;;;;21.50;46.44;101710.72;4917614;29;20072;-83
2022/05/01 09:59:46;;;;;;;4.72;2.95;;;;;;;21.94;47.00;101706.84;4919496;28;20122;-84
2022/05/01 10:02:35;;;;;;;6.25;3.90;;;;;;;22.08;48.10;101701.72;4917958;29;20028;-85
2022/05/01 10:05:20;;;;;;;3.35;2.80;;;;;;;22.40;47.12;101703.66;4919106;29;20092;-84
2022/05/01 10:08:10;;;;;;;8.43;6.65;;;;;;;22.40;45.32;101690.31;4919037;29;20024;-83
2022/05/01 10:10:58;;;;;;;6.82;3.33;;;;;;;21.68;48.05;101693.00;4930705;29;20028;-83
2022/05/01 10:13:45;;;;;;;4.65;3.20;;;;;;;20.92;49.17;101690.34;4917109;29;20075;-83
2022/05/01 10:16:31;;;;;;;5.45;3.17;;;;;;;20.76;51.12;101686.59;4919191;29;20040;-83
2022/05/01 10:19:18;;;;;;;8.30;2.90;;;;;;;20.66;49.82;101690.56;4919270;29;20028;-82
2022/05/01 10:22:06;;;;;;;8.18;2.92;;;;;;;20.42;50.35;101682.81;4917603;29;20043;-82
2022/05/01 10:24:51;;;;;;;4.75;2.70;;;;;;;20.13;49.52;101684.00;4916373;29;20127;-82
2022/05/01 10:27:49;;;;;;;5.35;2.70;;;;;;;20.08;50.22;101683.31;4917703;29;20103;-83
2022/05/01 10:34:08;;;;;;;5.43;2.60;;;;;;;20.37;48.65;101675.00;4917809;29;20028;-83
2022/05/01 10:37:17;;;;;;;6.65;2.65;;;;;;;20.50;48.07;101667.38;4930068;29;20040;-85
2022/05/01 10:40:05;;;;;;;4.40;2.80;;;;;;;20.33;48.38;101664.56;4919856;29;20036;-83
2022/05/01 10:42:52;;;;;;;7.40;2.60;;;;;;;20.73;46.61;101665.41;4921698;29;20489;-84
2022/05/01 10:45:42;;;;;;;5.55;2.88;;;;;;;21.22;46.02;101650.78;4921487;29;20461;-83
2022/05/01 10:48:29;;;;;;;5.43;2.80;;;;;;;21.59;44.54;101656.97;4922772;29;20028;-84
2022/05/01 10:51:30;;;;;;;2.95;2.33;;;;;;;21.83;42.43;101665.63;4920660;29;20043;-83
2022/05/01 10:54:19;;;;;;;4.10;2.47;;;;;;;22.02;42.06;101647.78;4922482;29;20035;-84
2022/05/01 10:57:07;;;;;;;3.33;2.63;;;;;;;22.91;39.89;101646.66;4922169;29;20052;-83
2022/05/01 11:00:22;;;;;;;3.28;2.33;;;;;;;22.15;41.94;101643.53;4920926;29;20092;-83
2022/05/01 11:03:28;;;;;;;3.53;2.33;;;;;;;22.63;42.17;101636.56;4918315;29;20131;-83
2022/05/01 11:06:20;;;;;;;4.65;2.40;;;;;;;22.45;43.18;101629.50;4921433;29;20024;-84
2022/05/01 11:09:09;;;;;;;4.13;2.20;;;;;;;22.92;43.34;101627.00;4934031;29;20414;-86
2022/05/01 11:12:00;;;;;;;10.15;2.60;;;;;;;22.67;42.11;101616.75;4920789;29;20047;-84
2022/05/01 11:14:51;;;;;;;4.22;2.13;;;;;;;22.81;42.42;101630.25;4920094;29;20035;-84
2022/05/01 11:17:39;;;;;;;4.07;2.70;;;;;;;22.02;41.83;101615.75;4921858;29;20032;-83
2022/05/01 11:20:26;;;;;;;4.72;2.47;;;;;;;21.76;43.49;101616.16;4939674;29;20063;-85
2022/05/01 11:23:45;;;;;;;6.65;2.83;;;;;;;21.50;41.81;101613.88;4921678;29;20099;-84
2022/05/01 11:26:32;;;;;;;6.55;2.67;;;;;;;21.66;41.99;101605.03;4912122;29;20071;-84
2022/05/01 11:29:21;;;;;;;6.93;2.80;;;;;;;21.05;43.28;101600.91;4932379;29;20131;-86
2022/05/01 11:32:21;;;;;;;3.25;2.45;;;;;;;21.35;42.83;101607.50;4932736;29;20024;-85
2022/05/01 11:35:07;;;;;;;4.05;2.40;;;;;;;22.13;41.58;101600.91;4920295;29;20040;-84
2022/05/01 11:37:59;;;;;;;2.80;2.33;;;;;;;21.48;41.66;101599.75;4932598;29;20059;-84
2022/05/01 11:40:56;;;;;;;3.67;2.25;;;;;;;21.57;42.75;101593.97;4921428;29;20028;-85
2022/05/01 11:43:42;;;;;;;5.60;2.40;;;;;;;21.66;43.01;101589.03;4923184;29;20084;-82
2022/05/01 11:46:30;;;;;;;3.75;2.40;;;;;;;21.91;41.96;101588.72;4933929;29;20171;-85
2022/05/01 11:49:19;;;;;;;5.22;2.38;;;;;;;21.86;41.72;101580.94;4927895;29;20453;-85
2022/05/01 11:52:07;;;;;;;3.33;2.22;;;;;;;22.49;41.01;101569.66;4919849;29;20098;-85
2022/05/01 11:54:55;;;;;;;5.57;2.53;;;;;;;22.29;40.15;101561.78;4919944;29;20036;-84
2022/05/01 12:03:49;;;;;;;5.35;2.83;;;;;;;23.29;38.86;101544.72;4919887;29;20118;-85
2022/05/01 12:06:39;;;;;;;5.38;2.78;;;;;;;23.33;38.88;101543.59;4920463;29;20497;-83
2022/05/01 12:09:29;;;;;;;3.50;2.10;;;;;;;22.88;38.07;101540.78;4931669;29;20032;-84
2022/05/01 12:12:18;;;;;;;5.30;2.20;;;;;;;23.33;37.65;101532.91;4931523;29;20024;-84
2022/05/01 12:15:06;;;;;;;7.15;2.90;;;;;;;22.95;36.89;101526.13;4919650;29;20024;-83
2022/05/01 12:18:15;;;;;;;6.70;3.42;;;;;;;22.68;37.46;101518.78;4919532;29;20457;-85
2022/05/01 12:21:00;;;;;;;4.13;2.35;;;;;;;22.59;36.84;101511.25;4932031;29;20461;-83
2022/05/01 12:23:47;;;;;;;3.35;2.28;;;;;;;22.77;34.89;101512.91;4917786;29;20028;-84
2022/05/01 12:26:36;;;;;;;3.85;2.08;;;;;;;22.25;35.83;101498.81;4919431;29;20477;-84
2022/05/01 12:29:23;;;;;;;2.95;2.00;;;;;;;21.77;35.85;101498.72;4919566;29;20077;-83
2022/05/01 12:32:14;;;;;;;3.08;2.20;;;;;;;21.69;36.83;101486.66;4920083;29;20097;-83
2022/05/01 12:35:01;;;;;;;3.38;2.03;;;;;;;22.56;36.55;101474.91;4931613;29;20107;-84
2022/05/01 12:37:50;;;;;;;3.40;2.10;;;;;;;22.68;36.96;101476.91;4919176;29;20091;-84
2022/05/01 12:43:52;;;;;;;3.92;2.08;;;;;;;23.23;35.05;101470.16;4919683;29;20453;-84
2022/05/01 12:46:51;;;;;;;2.55;1.98;;;;;;;21.76;35.91;101469.44;4918086;29;20036;-84
2022/05/01 12:49:37;;;;;;;3.22;2.00;;;;;;;21.52;37.07;101462.66;4918481;29;20028;-83
2022/05/01 12:52:33;;;;;;;2.50;2.00;;;;;;;21.73;37.70;101457.13;4917514;29;20199;-84
2022/05/01 12:55:21;;;;;;;4.32;2.10;;;;;;;21.85;38.05;101443.16;4919103;29;20035;-84
2022/05/01 12:58:11;;;;;;;5.63;2.53;;;;;;;22.03;37.23;101452.84;4918171;29;20056;-83
2022/05/01 13:00:58;;;;;;;3.92;2.20;;;;;;;22.22;37.03;101436.72;4918414;29;20039;-84
2022/05/01 13:03:44;;;;;;;3.72;2.20;;;;;;;22.46;36.89;101438.94;4920115;29;20024;-85
2022/05/01 13:06:37;;;;;;;3.33;2.28;;;;;;;22.79;36.07;101446.91;4917899;29;20031;-84
2022/05/01 13:09:23;;;;;;;2.67;1.92;;;;;;;22.89;35.07;101448.97;4918392;29;20044;-85
2022/05/01 13:12:09;;;;;;;5.72;2.20;;;;;;;23.04;35.13;101440.09;4918854;29;20043;-84
2022/05/01 13:14:57;;;;;;;2.90;2.17;;;;;;;22.76;35.36;101447.06;4918335;29;20377;-83
2022/05/01 13:18:00;;;;;;;4.07;2.08;;;;;;;22.71;34.98;101436.63;4916529;29;20059;-84
2022/05/01 13:20:46;;;;;;;4.78;2.13;;;;;;;23.14;34.89;101437.72;4917139;29;20440;-83
2022/05/01 13:23:31;;;;;;;3.40;2.10;;;;;;;22.68;34.04;101441.28;4918101;29;20040;-84
2022/05/01 13:26:18;;;;;;;3.45;1.67;;;;;;;22.80;34.92;101437.94;4917066;29;20024;-84
2022/05/01 13:29:09;;;;;;;3.50;2.05;;;;;;;23.01;35.64;101434.91;4919581;29;20024;-84
2022/05/01 13:31:55;;;;;;;2.40;2.20;;;;;;;22.60;36.74;101430.16;4930444;29;20032;-85
2022/05/01 13:34:42;;;;;;;2.55;2.00;;;;;;;23.63;35.96;101422.38;4917278;29;20036;-84
2022/05/01 13:37:30;;;;;;;6.60;2.33;;;;;;;23.17;36.35;101429.53;4931138;29;20043;-83
2022/05/01 13:46:26;;;;;;;2.67;1.83;;;;;;;22.02;36.74;101424.44;4918374;29;20394;-83
2022/05/01 13:49:11;;;;;;;4.78;2.10;;;;;;;22.51;36.64;101425.34;4917379;29;20028;-83
2022/05/01 13:51:57;;;;;;;3.45;2.10;;;;;;;22.63;35.90;101416.66;4918787;29;20457;-84
2022/05/01 13:54:45;;;;;;;5.90;1.90;;;;;;;23.61;35.22;101408.19;4917786;29;20032;-85
2022/05/01 13:57:31;;;;;;;3.05;1.90;;;;;;;22.68;36.59;101422.59;4919398;29;20107;-84
2022/05/01 14:00:17;;;;;;;5.47;2.00;;;;;;;21.96;35.90;101419.44;4916783;29;20414;-85
2022/05/01 14:03:07;;;;;;;2.70;1.80;;;;;;;22.26;35.54;101417.78;4931523;29;20373;-83
2022/05/01 14:05:53;;;;;;;3.67;1.70;;;;;;;22.84;35.23;101421.66;4917353;29;20028;-84
2022/05/01 14:08:39;;;;;;;3.15;2.00;;;;;;;23.08;35.05;101414.88;4916625;29;20454;-83
2022/05/01 14:11:26;;;;;;;3.45;1.77;;;;;;;23.16;35.88;101407.25;4917183;29;20043;-84
2022/05/01 14:14:13;;;;;;;3.20;2.10;;;;;;;23.55;35.98;101411.25;4919068;29;20028;-83
2022/05/01 14:16:59;;;;;;;3.90;2.05;;;;;;;23.00;37.59;101409.13;4921839;29;20139;-84
2022/05/01 14:19:47;;;;;;;4.15;2.53;;;;;;;22.10;38.22;101400.84;4921534;29;20466;-84
2022/05/01 14:22:34;;;;;;;4.85;2.55;;;;;;;21.73;39.35;101406.44;4920777;29;20035;-83
2022/05/01 14:25:20;;;;;;;4.70;2.22;;;;;;;21.89;38.94;101410.03;4923463;29;20131;-84
2022/05/01 14:28:06;;;;;;;4.15;2.53;;;;;;;21.27;37.96;101407.06;4920375;29;20437;-84
2022/05/01 14:30:59;;;;;;;3.03;2.20;;;;;;;21.39;37.93;101398.44;4922399;29;20043;-83
2022/05/01 14:33:52;;;;;;;4.40;2.28;;;;;;;20.86;37.50;101402.00;4921295;29;20059;-83
2022/05/01 14:36:43;;;;;;;3.63;2.10;;;;;;;21.46;37.76;101397.16;4921685;29;20028;-83
2022/05/01 14:39:29;;;;;;;4.85;2.50;;;;;;;21.78;37.81;101398.19;4922442;29;20055;-84
2022/05/01 14:42:17;;;;;;;4.63;2.00;;;;;;;21.81;36.74;101395.34;4921917;29;20513;-84
2022/05/01 14:45:05;;;;;;;3.28;1.70;;;;;;;21.36;35.94;101392.38;4923613;29;20450;-83
2022/05/01 14:48:36;;;;;;;2.90;2.00;;;;;;;21.50;35.74;101398.72;4919578;29;20039;-84
2022/05/01 14:51:22;;;;;;;2.90;1.98;;;;;;;21.41;34.72;101393.88;4908543;29;20039;-84
2022/05/01 14:54:08;;;;;;;2.58;2.03;;;;;;;21.60;34.15;101389.31;4921715;29;20036;-83
2022/05/01 14:57:00;;;;;;;4.13;2.05;;;;;;;21.87;34.33;101387.03;4922516;29;20048;-84
2022/05/01 15:06:19;;;;;;;2.53;1.95;;;;;;;21.26;35.56;101381.31;4921616;29;20342;-84
2022/05/01 15:09:05;;;;;;;5.95;2.20;;;;;;;21.69;35.09;101364.81;4921596;29;20118;-85
2022/05/01 15:11:51;;;;;;;4.07;2.00;;;;;;;21.40;35.39;101381.50;4920783;29;20483;-84
2022/05/01 15:14:38;;;;;;;4.07;1.77;;;;;;;21.00;34.98;101370.25;4920333;29;20099;-84
2022/05/01 15:17:32;;;;;;;5.32;1.70;;;;;;;21.12;35.08;101373.16;4920957;29;20078;-84
2022/05/01 15:20:28;;;;;;;2.15;1.67;;;;;;;21.19;35.19;101371.06;4922477;29;20031;-84
2022/05/01 15:23:38;;;;;;;3.05;1.90;;;;;;;21.42;35.29;101368.09;4919861;29;20054;-82
2022/05/01 15:26:25;;;;;;;6.80;1.73;;;;;;;21.16;34.98;101373.88;4920610;29;20042;-84
2022/05/01 15:29:18;;;;;;;2.72;1.70;;;;;;;21.07;34.13;101369.88;4920222;29;20095;-84
2022/05/01 15:32:08;;;;;;;3.38;1.90;;;;;;;20.99;34.60;101368.53;4920673;29;20028;-84
2022/05/01 15:35:03;;;;;;;2.70;1.90;;;;;;;21.15;35.07;101358.81;4919087;29;20111;-84
2022/05/01 15:37:50;;;;;;;4.47;2.10;;;;;;;21.17;35.44;101363.13;4921807;29;20042;-84
2022/05/01 15:40:43;;;;;;;5.18;2.17;;;;;;;20.98;36.33;101362.31;4919619;29;20122;-84
2022/05/01 15:43:31;;;;;;;2.50;1.98;;;;;;;21.12;36.96;101366.97;4933729;29;20032;-83
2022/05/01 15:46:22;;;;;;;3.85;1.95;;;;;;;21.11;36.82;101358.13;4921140;29;20024;-83
2022/05/01 15:55:18;;;;;;;3.50;2.25;;;;;;;21.04;37.64;101362.03;4921101;29;20024;-84
2022/05/01 15:58:04;;;;;;;3.97;2.25;;;;;;;21.19;37.99;101366.59;4920000;29;20119;-84
2022/05/01 16:00:52;;;;;;;4.45;2.40;;;;;;;21.31;38.38;101363.31;4919776;29;20070;-83
2022/05/01 16:03:38;;;;;;;19.15;3.10;;;;;;;21.14;40.14;101365.94;4919810;29;20028;-83
2022/05/01 16:06:24;;;;;;;4.88;2.30;;;;;;;21.15;41.00;101365.03;4919448;29;20035;-83
2022/05/01 16:09:31;;;;;;;5.47;2.22;;;;;;;21.12;41.27;101366.97;4919435;29;20032;-85
2022/05/01 16:12:36;;;;;;;4.97;2.15;;;;;;;21.13;41.82;101371.38;4919647;29;20028;-84
2022/05/01 16:15:36;;;;;;;3.50;2.47;;;;;;;20.78;42.39;101375.72;4919744;29;20102;-85
2022/05/01 16:18:31;;;;;;;3.33;2.30;;;;;;;20.67;42.51;101372.75;4923565;29;20037;-84